Time;durP1;ratioP1;P1;durP2;ratioP2;P2;SDS_P1;SDS_P2;PMS_P1;PMS_P2;Temp;Humidity;BMP_temperature;BMP_pressure;BME280_temperature;BME280_humidity;BME280_pressure;Samples;Min_cycle;Max_cycle;Signal;HPM_P1;HPM_P2
2023/08/12 00:01:36;;;;;;;21.77;13.00;;;;;;;;;;6240255;28;19909;-79
2023/08/12 00:04:37;;;;;;;19.10;12.27;;;;;;;;;;6242578;28;20072;-79
2023/08/12 00:07:37;;;;;;;19.30;11.93;;;;;;;;;;6237447;28;20026;-80
2023/08/12 00:10:38;;;;;;;14.23;9.43;;;;;;;;;;6239576;28;20468;-79
2023/08/12 00:13:39;;;;;;;18.48;11.20;;;;;;;;;;6246726;28;20033;-79
2023/08/12 00:16:40;;;;;;;21.75;10.52;;;;;;;;;;6241974;28;20021;-79
2023/08/12 00:19:40;;;;;;;14.15;8.50;;;;;;;;;;6241751;28;20060;-79
2023/08/12 00:22:40;;;;;;;12.67;9.20;;;;;;;;;;6240854;28;20033;-79
2023/08/12 00:25:41;;;;;;;12.47;8.77;;;;;;;;;;6244198;28;20020;-79
2023/08/12 00:28:42;;;;;;;10.88;7.45;;;;;;;;;;6249031;28;20025;-79
2023/08/12 00:31:42;;;;;;;10.17;7.87;;;;;;;;;;6242842;28;20399;-79
2023/08/12 00:34:42;;;;;;;12.77;9.33;;;;;;;;;;6245657;28;20037;-79
2023/08/12 00:37:42;;;;;;;17.90;11.07;;;;;;;;;;6228040;28;20483;-79
2023/08/12 00:40:43;;;;;;;21.33;12.10;;;;;;;;;;6238994;28;20476;-79
2023/08/12 00:43:43;;;;;;;13.70;9.93;;;;;;;;;;6238969;28;20033;-79
2023/08/12 00:46:44;;;;;;;17.43;10.93;;;;;;;;;;6243467;28;20022;-79
2023/08/12 00:49:45;;;;;;;18.33;11.87;;;;;;;;;;6244819;28;20084;-79
2023/08/12 00:52:45;;;;;;;15.35;10.68;;;;;;;;;;6242080;28;20034;-79
2023/08/12 00:55:45;;;;;;;15.73;12.10;;;;;;;;;;6242363;28;20041;-79
2023/08/12 00:58:46;;;;;;;17.87;11.67;;;;;;;;;;6245251;28;20037;-79
2023/08/12 01:01:47;;;;;;;16.43;11.67;;;;;;;;;;6241527;28;20037;-79
2023/08/12 01:04:47;;;;;;;17.93;10.33;;;;;;;;;;6247708;28;20120;-79
2023/08/12 01:07:48;;;;;;;16.10;10.73;;;;;;;;;;6226163;28;20260;-79
2023/08/12 01:10:52;;;;;;;16.93;10.80;;;;;;;;;;6224947;28;20495;-79
2023/08/12 01:13:58;;;;;;;15.25;11.55;;;;;;;;;;6243266;28;20044;-78
2023/08/12 01:17:03;;;;;;;13.85;10.52;;;;;;;;;;6245174;28;20029;-79
2023/08/12 01:20:08;;;;;;;17.75;10.82;;;;;;;;;;6243859;28;20363;-79
2023/08/12 01:23:10;;;;;;;15.23;10.45;;;;;;;;;;6226124;28;20484;-79
2023/08/12 01:26:10;;;;;;;17.77;10.02;;;;;;;;;;6244902;28;20499;-78
2023/08/12 01:29:11;;;;;;;18.93;12.63;;;;;;;;;;6248345;28;20030;-79
2023/08/12 01:32:18;;;;;;;15.57;10.73;;;;;;;;;;6243826;28;20033;-79
2023/08/12 01:35:25;;;;;;;13.02;7.53;;;;;;;;;;6243817;28;20029;-78
2023/08/12 01:38:26;;;;;;;12.50;7.97;;;;;;;;;;6244014;28;20147;-78
2023/08/12 01:41:26;;;;;;;13.75;8.90;;;;;;;;;;6226359;28;20029;-79
2023/08/12 01:44:27;;;;;;;12.00;9.70;;;;;;;;;;6219989;28;20025;-78
2023/08/12 01:47:27;;;;;;;12.97;10.07;;;;;;;;;;6243592;28;20531;-78
2023/08/12 01:50:28;;;;;;;13.50;8.90;;;;;;;;;;6243664;28;20424;-79
2023/08/12 01:53:29;;;;;;;15.67;9.63;;;;;;;;;;6225233;28;20492;-77
2023/08/12 01:56:29;;;;;;;12.63;9.40;;;;;;;;;;6243714;28;20021;-78
2023/08/12 01:59:29;;;;;;;15.57;9.63;;;;;;;;;;6242817;28;20029;-78
2023/08/12 02:02:30;;;;;;;13.65;10.05;;;;;;;;;;6249723;28;20017;-78
2023/08/12 02:05:30;;;;;;;12.90;8.87;;;;;;;;;;6243210;28;20029;-78
2023/08/12 02:08:30;;;;;;;12.35;8.18;;;;;;;;;;6224672;28;20037;-78
2023/08/12 02:11:30;;;;;;;10.57;7.70;;;;;;;;;;6243020;28;20034;-79
2023/08/12 02:14:30;;;;;;;13.93;8.63;;;;;;;;;;6243183;28;20116;-79
2023/08/12 02:17:31;;;;;;;15.57;9.60;;;;;;;;;;6245288;28;20021;-79
2023/08/12 02:20:31;;;;;;;17.27;9.23;;;;;;;;;;6222561;28;20483;-78
2023/08/12 02:23:31;;;;;;;15.17;8.93;;;;;;;;;;6243118;28;20029;-78
2023/08/12 02:26:31;;;;;;;12.70;8.63;;;;;;;;;;6225129;28;20017;-78
2023/08/12 02:29:34;;;;;;;14.33;9.63;;;;;;;;;;6248216;28;20026;-78
2023/08/12 02:32:34;;;;;;;15.50;9.18;;;;;;;;;;6242852;28;20032;-78
2023/08/12 02:35:35;;;;;;;15.47;10.10;;;;;;;;;;6242000;28;20065;-78
2023/08/12 02:38:35;;;;;;;13.87;10.33;;;;;;;;;;6240805;28;21012;-78
2023/08/12 02:41:35;;;;;;;13.27;10.52;;;;;;;;;;6243180;28;20025;-78
2023/08/12 02:44:35;;;;;;;15.95;10.75;;;;;;;;;;6241584;28;20033;-78
2023/08/12 02:47:35;;;;;;;13.00;10.07;;;;;;;;;;6223527;28;20026;-78
2023/08/12 02:50:36;;;;;;;13.85;9.25;;;;;;;;;;6242285;28;20368;-78
2023/08/12 02:53:36;;;;;;;13.50;10.33;;;;;;;;;;6242957;28;20104;-78
2023/08/12 02:56:36;;;;;;;13.27;9.27;;;;;;;;;;6239314;28;20490;-78
2023/08/12 02:59:36;;;;;;;15.48;8.75;;;;;;;;;;6237719;28;20026;-79
2023/08/12 03:02:37;;;;;;;12.57;7.20;;;;;;;;;;6240944;28;20056;-79
2023/08/12 03:05:37;;;;;;;11.20;8.07;;;;;;;;;;6239772;28;20025;-79
2023/08/12 03:08:37;;;;;;;17.40;10.30;;;;;;;;;;6242618;28;20037;-78
2023/08/12 03:11:39;;;;;;;14.50;9.07;;;;;;;;;;6241425;28;20481;-78
2023/08/12 03:14:39;;;;;;;12.43;8.70;;;;;;;;;;6239806;28;20032;-78
2023/08/12 03:17:39;;;;;;;16.10;8.90;;;;;;;;;;6223439;28;20491;-78
2023/08/12 03:20:39;;;;;;;16.00;10.23;;;;;;;;;;6231208;28;20013;-78
2023/08/12 03:23:40;;;;;;;12.07;9.13;;;;;;;;;;6240988;28;20026;-78
2023/08/12 03:26:40;;;;;;;12.27;8.55;;;;;;;;;;6241250;28;20307;-78
2023/08/12 03:29:40;;;;;;;10.33;7.97;;;;;;;;;;6220847;28;20032;-78
2023/08/12 03:32:41;;;;;;;11.63;9.00;;;;;;;;;;6242254;28;20017;-79
2023/08/12 03:35:44;;;;;;;13.60;7.57;;;;;;;;;;6242160;28;20030;-79
2023/08/12 03:38:45;;;;;;;12.13;8.80;;;;;;;;;;6224028;28;20018;-79
2023/08/12 03:41:45;;;;;;;14.03;10.17;;;;;;;;;;6241852;28;20032;-79
2023/08/12 03:44:46;;;;;;;12.70;8.70;;;;;;;;;;6224480;28;20475;-79
2023/08/12 03:47:46;;;;;;;10.57;8.07;;;;;;;;;;6242097;28;20045;-78
2023/08/12 03:50:47;;;;;;;15.77;8.80;;;;;;;;;;6224070;28;20029;-79
2023/08/12 03:53:47;;;;;;;11.20;9.55;;;;;;;;;;6240965;28;20458;-79
2023/08/12 03:56:47;;;;;;;16.60;9.90;;;;;;;;;;6242260;28;20029;-79
2023/08/12 03:59:48;;;;;;;12.80;9.43;;;;;;;;;;6241948;28;20030;-79
2023/08/12 04:02:48;;;;;;;13.17;9.30;;;;;;;;;;6252720;28;20611;-79
2023/08/12 04:05:49;;;;;;;15.35;8.38;;;;;;;;;;6210346;28;20276;-78
2023/08/12 04:08:49;;;;;;;13.10;9.20;;;;;;;;;;6244412;28;20017;-79
2023/08/12 04:11:49;;;;;;;14.82;9.70;;;;;;;;;;6229850;28;20539;-79
2023/08/12 04:14:51;;;;;;;14.90;9.10;;;;;;;;;;6242431;28;20022;-79
2023/08/12 04:17:51;;;;;;;13.45;9.07;;;;;;;;;;6230854;28;20131;-79
2023/08/12 04:20:52;;;;;;;12.87;9.43;;;;;;;;;;6244525;28;20492;-79
2023/08/12 04:23:55;;;;;;;15.87;11.43;;;;;;;;;;6245790;28;20052;-79
2023/08/12 04:26:55;;;;;;;19.10;13.40;;;;;;;;;;6246294;28;20020;-79
2023/08/12 04:29:55;;;;;;;19.80;12.23;;;;;;;;;;6251687;28;20380;-79
2023/08/12 04:32:55;;;;;;;16.60;10.65;;;;;;;;;;6245650;28;20240;-79
2023/08/12 04:35:56;;;;;;;18.07;13.50;;;;;;;;;;6227585;28;20030;-79
2023/08/12 04:38:57;;;;;;;17.60;13.47;;;;;;;;;;6250035;28;20032;-79
2023/08/12 04:41:57;;;;;;;19.27;11.60;;;;;;;;;;6224468;28;20032;-79
2023/08/12 04:44:57;;;;;;;15.40;10.85;;;;;;;;;;6227838;28;20036;-79
2023/08/12 04:47:57;;;;;;;15.80;11.87;;;;;;;;;;6227561;28;20037;-81
2023/08/12 04:51:01;;;;;;;19.03;11.27;;;;;;;;;;6244286;28;20023;-81
2023/08/12 04:54:02;;;;;;;17.23;11.07;;;;;;;;;;6240545;28;20017;-81
2023/08/12 04:57:02;;;;;;;17.93;10.23;;;;;;;;;;6245662;28;20509;-81
2023/08/12 05:00:03;;;;;;;14.30;9.70;;;;;;;;;;6244912;28;20029;-81
2023/08/12 05:03:04;;;;;;;13.00;9.05;;;;;;;;;;6255520;28;20075;-81
2023/08/12 05:06:04;;;;;;;13.10;9.98;;;;;;;;;;6235536;28;20049;-81
2023/08/12 05:09:05;;;;;;;12.20;9.47;;;;;;;;;;6225091;28;20063;-81
2023/08/12 05:12:07;;;;;;;13.65;9.02;;;;;;;;;;6245297;28;20026;-81
2023/08/12 05:15:07;;;;;;;13.37;8.17;;;;;;;;;;6244515;28;20071;-81
2023/08/12 05:18:07;;;;;;;13.47;8.27;;;;;;;;;;6244680;28;20017;-81
2023/08/12 05:21:08;;;;;;;14.53;9.03;;;;;;;;;;6244072;28;20125;-82
2023/08/12 05:24:08;;;;;;;14.57;8.53;;;;;;;;;;6226318;28;20013;-82
2023/08/12 05:27:08;;;;;;;16.20;8.80;;;;;;;;;;6243932;28;20101;-81
2023/08/12 05:30:09;;;;;;;16.38;9.10;;;;;;;;;;6222646;28;20017;-81
2023/08/12 05:33:09;;;;;;;15.43;10.33;;;;;;;;;;6247525;28;20037;-82
2023/08/12 05:36:10;;;;;;;19.93;10.03;;;;;;;;;;6247999;28;20013;-81
2023/08/12 05:39:10;;;;;;;13.67;9.77;;;;;;;;;;6245163;28;20053;-82
2023/08/12 05:42:11;;;;;;;17.70;10.30;;;;;;;;;;6245562;28;20053;-82
2023/08/12 05:45:11;;;;;;;20.13;10.43;;;;;;;;;;6241592;28;20264;-82
2023/08/12 05:48:11;;;;;;;17.97;11.33;;;;;;;;;;6241012;28;20049;-82
2023/08/12 05:51:11;;;;;;;16.47;10.43;;;;;;;;;;6223972;28;20112;-82
2023/08/12 05:54:11;;;;;;;21.93;12.47;;;;;;;;;;6224144;28;20794;-81
2023/08/12 05:57:12;;;;;;;17.80;11.43;;;;;;;;;;6225328;28;20492;-79
2023/08/12 06:00:12;;;;;;;17.30;11.93;;;;;;;;;;6249680;28;20034;-79
2023/08/12 06:03:13;;;;;;;15.07;10.67;;;;;;;;;;6251676;28;20074;-80
2023/08/12 06:06:13;;;;;;;15.17;10.73;;;;;;;;;;6225471;28;20060;-80
2023/08/12 06:09:13;;;;;;;16.60;11.60;;;;;;;;;;6243901;28;20036;-80
2023/08/12 06:12:15;;;;;;;18.37;12.17;;;;;;;;;;6243285;28;20387;-80
2023/08/12 06:15:15;;;;;;;15.70;12.30;;;;;;;;;;6245836;28;20047;-81
2023/08/12 06:18:15;;;;;;;19.63;13.33;;;;;;;;;;6243620;28;20048;-80
2023/08/12 06:21:16;;;;;;;14.88;10.90;;;;;;;;;;6242883;28;20365;-80
2023/08/12 06:24:16;;;;;;;14.13;10.32;;;;;;;;;;6225177;28;20024;-80
2023/08/12 06:27:16;;;;;;;15.50;11.77;;;;;;;;;;6243091;28;20423;-80
2023/08/12 06:30:16;;;;;;;17.67;11.47;;;;;;;;;;6243447;28;20017;-80
2023/08/12 06:33:16;;;;;;;14.97;10.53;;;;;;;;;;6243034;28;20017;-79
2023/08/12 06:36:18;;;;;;;20.05;10.57;;;;;;;;;;6242719;28;20478;-80
2023/08/12 06:39:18;;;;;;;21.20;11.93;;;;;;;;;;6242686;28;20018;-80
2023/08/12 06:42:18;;;;;;;17.52;11.90;;;;;;;;;;6224673;28;20036;-80
2023/08/12 06:45:18;;;;;;;18.37;12.17;;;;;;;;;;6242176;28;20571;-80
2023/08/12 06:48:18;;;;;;;20.03;12.40;;;;;;;;;;6242921;28;20106;-80
2023/08/12 06:51:19;;;;;;;19.10;11.80;;;;;;;;;;6243450;28;20104;-80
2023/08/12 06:54:19;;;;;;;18.57;10.73;;;;;;;;;;6222777;28;20492;-80
2023/08/12 06:57:19;;;;;;;17.17;11.30;;;;;;;;;;6241443;28;20040;-80
2023/08/12 07:00:20;;;;;;;18.67;11.70;;;;;;;;;;6224485;28;20028;-80
2023/08/12 07:03:20;;;;;;;16.23;10.60;;;;;;;;;;6241374;28;20017;-80
2023/08/12 07:06:20;;;;;;;15.80;10.70;;;;;;;;;;6242393;28;20013;-80
2023/08/12 07:09:20;;;;;;;16.77;10.13;;;;;;;;;;6224560;28;20487;-79
2023/08/12 07:12:20;;;;;;;16.23;11.13;;;;;;;;;;6223094;28;20017;-80
2023/08/12 07:15:21;;;;;;;16.53;10.03;;;;;;;;;;6223368;28;20101;-78
2023/08/12 07:18:22;;;;;;;15.83;10.70;;;;;;;;;;6241797;28;20024;-79
2023/08/12 07:21:22;;;;;;;16.95;10.38;;;;;;;;;;6241463;28;20021;-78
2023/08/12 07:24:23;;;;;;;;;;;;;;;;;;6235020;28;20053;-78
2023/08/12 07:27:23;;;;;;;13.05;9.13;;;;;;;;;;6240749;28;20283;-78
2023/08/12 07:30:24;;;;;;;16.27;9.55;;;;;;;;;;6222129;28;20789;-78
2023/08/12 07:33:24;;;;;;;;;;;;;;;;;;6238216;28;20036;-78
2023/08/12 07:36:24;;;;;;;15.77;8.00;;;;;;;;;;6232547;28;19916;-77
2023/08/12 07:39:25;;;;;;;;;;;;;;;;;;6245439;28;20024;-77
2023/08/12 07:42:25;;;;;;;14.23;8.75;;;;;;;;;;6244931;28;19992;-77
2023/08/12 07:45:25;;;;;;;;;;;;;;;;;;6248847;28;20025;-77
2023/08/12 07:48:25;;;;;;;10.20;6.75;;;;;;;;;;6247981;28;19999;-78
2023/08/12 07:51:26;;;;;;;;;;;;;;;;;;6246546;28;20029;-77
2023/08/12 07:54:26;;;;;;;10.98;6.93;;;;;;;;;;6249875;28;19913;-78
2023/08/12 07:57:26;;;;;;;8.75;5.15;;;;;;;;;;6247892;28;20013;-78
2023/08/12 08:00:26;;;;;;;;;;;;;;;;;;6247164;28;20026;-78
2023/08/12 08:03:27;;;;;;;11.32;6.53;;;;;;;;;;6246035;28;19905;-77
2023/08/12 08:06:28;;;;;;;11.02;5.97;;;;;;;;;;6250909;28;20080;-77
2023/08/12 08:09:29;;;;;;;8.93;5.30;;;;;;;;;;6244360;28;20041;-77
2023/08/12 08:12:29;;;;;;;11.07;6.10;;;;;;;;;;6245075;28;20028;-77
2023/08/12 08:15:29;;;;;;;9.77;5.05;;;;;;;;;;6245833;28;20013;-77
2023/08/12 08:18:29;;;;;;;9.80;4.77;;;;;;;;;;6245818;28;20433;-77
2023/08/12 08:21:30;;;;;;;12.13;5.03;;;;;;;;;;6245999;28;20831;-77
2023/08/12 08:24:31;;;;;;;9.27;5.65;;;;;;;;;;6245819;28;20499;-77
2023/08/12 08:27:31;;;;;;;8.60;5.80;;;;;;;;;;6246871;28;20021;-83
2023/08/12 08:30:32;;;;;;;11.02;4.28;;;;;;;;;;6248507;28;20017;-83
2023/08/12 08:33:32;;;;;;;7.80;4.50;;;;;;;;;;6245286;28;20014;-83
2023/08/12 08:36:32;;;;;;;6.75;4.50;;;;;;;;;;6245542;28;20041;-82
2023/08/12 08:39:32;;;;;;;;;;;;;;;;;;6246568;28;20030;-83
2023/08/12 08:42:34;;;;;;;6.05;3.65;;;;;;;;;;6245610;28;20355;-84
2023/08/12 08:45:34;;;;;;;7.80;4.28;;;;;;;;;;6244263;28;20475;-84
2023/08/12 08:48:34;;;;;;;;;;;;;;;;;;6245401;28;20069;-84
2023/08/12 08:51:34;;;;;;;8.43;3.72;;;;;;;;;;6231260;28;19909;-84
2023/08/12 08:54:34;;;;;;;;;;;;;;;;;;6245710;28;20044;-84
2023/08/12 08:57:37;;;;;;;5.33;3.73;;;;;;;;;;6246978;28;19909;-84
2023/08/12 09:00:37;;;;;;;6.00;3.50;;;;;;;;;;6242465;28;20037;-84
2023/08/12 09:03:37;;;;;;;;;;;;;;;;;;6247052;28;20528;-83
2023/08/12 09:06:39;;;;;;;6.57;4.03;;;;;;;;;;6227508;28;19915;-84
2023/08/12 09:09:41;;;;;;;7.57;3.95;;;;;;;;;;6245211;28;20085;-84
2023/08/12 09:12:44;;;;;;;4.70;3.38;;;;;;;;;;6248804;28;20038;-84
2023/08/12 09:15:44;;;;;;;4.72;2.92;;;;;;;;;;6245590;28;20076;-84
2023/08/12 09:18:44;;;;;;;;;;;;;;;;;;6245183;28;20025;-84
2023/08/12 09:21:52;;;;;;;4.93;3.15;;;;;;;;;;6237978;28;19948;-84
2023/08/12 09:24:58;;;;;;;5.78;3.90;;;;;;;;;;6240172;28;20014;-85
2023/08/12 09:27:59;;;;;;;6.30;3.78;;;;;;;;;;6244640;28;20431;-83
2023/08/12 09:30:59;;;;;;;;;;;;;;;;;;6248142;28;20013;-83
2023/08/12 09:34:03;;;;;;;6.45;3.40;;;;;;;;;;6244051;28;19911;-83
2023/08/12 09:37:03;;;;;;;6.38;3.10;;;;;;;;;;6243990;28;20036;-83
2023/08/12 09:40:05;;;;;;;;;;;;;;;;;;6244166;28;20100;-83
2023/08/12 09:43:06;;;;;;;4.40;2.92;;;;;;;;;;6244669;28;19909;-83
2023/08/12 09:46:06;;;;;;;;;;;;;;;;;;6249475;28;20028;-83
2023/08/12 09:49:06;;;;;;;6.10;2.78;;;;;;;;;;6243663;28;20713;-77
2023/08/12 09:52:06;;;;;;;;;;;;;;;;;;6244702;28;20036;-77
2023/08/12 09:55:10;;;;;;;8.30;2.92;;;;;;;;;;6243635;28;19913;-77
2023/08/12 09:58:11;;;;;;;5.28;2.58;;;;;;;;;;6240627;28;20064;-77
2023/08/12 10:01:14;;;;;;;4.95;3.00;;;;;;;;;;6224944;28;20539;-78
2023/08/12 10:04:16;;;;;;;5.57;3.05;;;;;;;;;;6245128;28;20030;-78
2023/08/12 10:07:17;;;;;;;5.03;3.10;;;;;;;;;;6239305;28;20087;-78
2023/08/12 10:10:17;;;;;;;;;;;;;;;;;;6241084;28;20033;-78
2023/08/12 10:13:17;;;;;;;3.97;2.63;;;;;;;;;;6229118;28;19955;-77
2023/08/12 10:16:17;;;;;;;;;;;;;;;;;;6243774;28;20276;-78
2023/08/12 10:19:19;;;;;;;3.55;2.67;;;;;;;;;;6243263;28;20241;-78
2023/08/12 10:22:19;;;;;;;6.82;2.97;;;;;;;;;;6241260;28;20021;-78
2023/08/12 10:25:21;;;;;;;;;;;;;;;;;;6240056;28;20057;-78
2023/08/12 10:28:22;;;;;;;6.68;2.97;;;;;;;;;;6245147;28;19920;-78
2023/08/12 10:31:22;;;;;;;;;;;;;;;;;;6240389;28;20033;-78
2023/08/12 10:34:24;;;;;;;7.43;3.08;;;;;;;;;;6240224;28;20567;-78
2023/08/12 10:37:25;;;;;;;3.95;2.10;;;;;;;;;;6241962;28;20029;-77
2023/08/12 10:40:25;;;;;;;;;;;;;;;;;;6240447;28;20024;-78
2023/08/12 10:43:26;;;;;;;3.70;2.53;;;;;;;;;;6240161;28;19916;-78
2023/08/12 10:46:26;;;;;;;;;;;;;;;;;;6241292;28;20041;-78
2023/08/12 10:49:26;;;;;;;2.53;1.97;;;;;;;;;;6220002;28;20529;-77
2023/08/12 10:52:27;;;;;;;;;;;;;;;;;;6242740;28;20060;-78
2023/08/12 10:55:27;;;;;;;4.68;2.40;;;;;;;;;;6241889;28;19948;-77
2023/08/12 10:58:33;;;;;;;3.50;2.08;;;;;;;;;;6243549;28;20036;-82
2023/08/12 11:01:34;;;;;;;8.00;2.60;;;;;;;;;;6235534;28;20411;-81
2023/08/12 11:04:38;;;;;;;4.25;2.28;;;;;;;;;;6245526;28;20447;-81
2023/08/12 11:07:45;;;;;;;6.18;2.65;;;;;;;;;;6241994;28;20033;-81
2023/08/12 11:10:46;;;;;;;4.03;2.20;;;;;;;;;;6242012;28;20025;-81
2023/08/12 11:13:46;;;;;;;;;;;;;;;;;;6242560;28;20104;-81
2023/08/12 11:16:46;;;;;;;3.17;1.95;;;;;;;;;;6245882;28;19956;-81
2023/08/12 11:19:47;;;;;;;;;;;;;;;;;;6241700;28;20025;-80
2023/08/12 11:22:47;;;;;;;3.03;2.00;;;;;;;;;;6223171;28;19940;-81
2023/08/12 11:25:49;;;;;;;;;;;;;;;;;;6218589;28;20053;-81
2023/08/12 11:28:50;;;;;;;4.43;1.92;;;;;;;;;;6245962;28;19909;-81
2023/08/12 11:31:50;;;;;;;2.28;2.08;;;;;;;;;;6241071;28;20025;-81
2023/08/12 11:34:51;;;;;;;2.85;1.67;;;;;;;;;;6221139;28;20034;-82
2023/08/12 11:37:52;;;;;;;;;;;;;;;;;;6238672;28;20037;-81
2023/08/12 11:40:53;;;;;;;4.05;2.00;;;;;;;;;;6239817;28;19909;-81
2023/08/12 11:43:53;;;;;;;3.63;1.90;;;;;;;;;;6235746;28;20392;-81
2023/08/12 11:46:53;;;;;;;3.10;1.98;;;;;;;;;;6248833;28;20036;-81
2023/08/12 11:49:54;;;;;;;3.00;2.03;;;;;;;;;;6240812;28;20068;-81
2023/08/12 11:52:55;;;;;;;2.05;1.70;;;;;;;;;;6240884;28;20028;-80
2023/08/12 11:55:55;;;;;;;4.15;1.95;;;;;;;;;;6239410;28;20027;-80
2023/08/12 11:58:55;;;;;;;1.90;1.70;;;;;;;;;;6241108;28;20782;-80
2023/08/12 12:01:56;;;;;;;3.50;1.70;;;;;;;;;;6234743;28;20028;-80
2023/08/12 12:04:56;;;;;;;2.87;1.50;;;;;;;;;;6238103;28;20048;-80
2023/08/12 12:07:56;;;;;;;4.37;2.23;;;;;;;;;;6223819;28;21048;-77
2023/08/12 12:10:56;;;;;;;5.57;2.27;;;;;;;;;;6241616;28;20577;-78
2023/08/12 12:13:59;;;;;;;3.00;1.60;;;;;;;;;;6240549;28;20032;-77
2023/08/12 12:17:00;;;;;;;2.08;1.80;;;;;;;;;;6240781;28;20068;-77
2023/08/12 12:20:00;;;;;;;;;;;;;;;;;;6243477;28;20037;-77
2023/08/12 12:23:04;;;;;;;2.30;2.00;;;;;;;;;;6249569;28;20474;-77
2023/08/12 12:26:05;;;;;;;4.22;2.40;;;;;;;;;;6226367;28;20032;-77
2023/08/12 12:29:05;;;;;;;3.33;2.10;;;;;;;;;;6221220;28;20128;-77
2023/08/12 12:32:06;;;;;;;3.35;2.22;;;;;;;;;;6244496;28;20441;-77
2023/08/12 12:35:07;;;;;;;3.97;2.47;;;;;;;;;;6244074;28;20073;-78
2023/08/12 12:38:07;;;;;;;6.53;2.50;;;;;;;;;;6242877;28;20404;-78
2023/08/12 12:41:07;;;;;;;3.23;2.27;;;;;;;;;;6246684;28;20022;-78
2023/08/12 12:44:09;;;;;;;2.97;1.70;;;;;;;;;;6242092;28;20018;-78
2023/08/12 12:47:12;;;;;;;3.85;2.03;;;;;;;;;;6238056;28;20025;-78
2023/08/12 12:50:12;;;;;;;1.80;1.70;;;;;;;;;;6244273;28;20152;-78
2023/08/12 12:53:12;;;;;;;2.58;1.80;;;;;;;;;;6242319;28;20033;-78
2023/08/12 12:56:13;;;;;;;4.82;2.20;;;;;;;;;;6243982;28;20450;-76
2023/08/12 12:59:14;;;;;;;;;;;;;;;;;;6244150;28;20292;-77
2023/08/12 13:02:14;;;;;;;4.22;1.92;;;;;;;;;;6243683;28;19913;-77
2023/08/12 13:05:14;;;;;;;1.98;1.58;;;;;;;;;;6243884;28;20095;-77
2023/08/12 13:08:15;;;;;;;4.90;2.10;;;;;;;;;;6244969;28;20032;-77
2023/08/12 13:11:16;;;;;;;4.13;2.03;;;;;;;;;;6243269;28;20037;-76
2023/08/12 13:14:19;;;;;;;12.35;3.92;;;;;;;;;;6244765;28;20260;-76
2023/08/12 13:17:19;;;;;;;3.65;1.75;;;;;;;;;;6249559;28;20395;-77
2023/08/12 13:20:21;;;;;;;4.27;2.03;;;;;;;;;;6244516;28;20022;-77
2023/08/12 13:23:21;;;;;;;2.85;2.00;;;;;;;;;;6247471;28;20387;-77
2023/08/12 13:26:21;;;;;;;4.93;2.03;;;;;;;;;;6229098;28;20029;-77
2023/08/12 13:29:21;;;;;;;5.10;2.30;;;;;;;;;;6229010;28;20116;-77
2023/08/12 13:32:22;;;;;;;2.78;1.67;;;;;;;;;;6242969;28;20029;-77
2023/08/12 13:35:22;;;;;;;6.30;2.03;;;;;;;;;;6225254;28;20034;-77
2023/08/12 13:38:22;;;;;;;2.85;2.10;;;;;;;;;;6241336;28;20080;-77
2023/08/12 13:41:22;;;;;;;6.95;2.75;;;;;;;;;;6244204;28;20038;-77
2023/08/12 13:44:23;;;;;;;6.63;2.65;;;;;;;;;;6247432;28;20479;-77
2023/08/12 13:47:23;;;;;;;3.88;1.90;;;;;;;;;;6243017;28;20036;-78
2023/08/12 13:50:23;;;;;;;6.40;2.50;;;;;;;;;;6225602;28;20343;-77
2023/08/12 13:53:24;;;;;;;3.73;2.00;;;;;;;;;;6224819;28;20105;-77
2023/08/12 13:56:24;;;;;;;3.97;2.10;;;;;;;;;;6243042;28;20748;-77
2023/08/12 13:59:24;;;;;;;3.28;2.25;;;;;;;;;;6243033;28;20029;-78
2023/08/12 14:02:24;;;;;;;2.28;2.03;;;;;;;;;;6249291;28;20029;-77
2023/08/12 14:05:25;;;;;;;3.43;2.10;;;;;;;;;;6243625;28;20052;-77
2023/08/12 14:08:25;;;;;;;6.30;2.30;;;;;;;;;;6243724;28;20025;-77
2023/08/12 14:11:25;;;;;;;2.33;1.90;;;;;;;;;;6244138;28;20021;-77
2023/08/12 14:14:29;;;;;;;4.47;2.00;;;;;;;;;;6241392;28;20152;-77
2023/08/12 14:17:29;;;;;;;3.95;2.13;;;;;;;;;;6243191;28;20025;-77
2023/08/12 14:20:29;;;;;;;3.35;2.08;;;;;;;;;;6243677;28;20026;-77
2023/08/12 14:23:29;;;;;;;3.30;1.83;;;;;;;;;;6243026;28;20096;-77
2023/08/12 14:26:29;;;;;;;3.30;2.22;;;;;;;;;;6242611;28;20026;-77
2023/08/12 14:29:30;;;;;;;4.87;2.20;;;;;;;;;;6249846;28;20525;-77
2023/08/12 14:32:30;;;;;;;2.88;2.30;;;;;;;;;;6245259;28;20033;-77
2023/08/12 14:35:31;;;;;;;6.73;2.50;;;;;;;;;;6229600;28;20055;-78
2023/08/12 14:38:32;;;;;;;3.50;1.58;;;;;;;;;;6242649;28;20033;-78
2023/08/12 14:41:33;;;;;;;5.15;2.60;;;;;;;;;;6242452;28;20057;-77
2023/08/12 14:44:34;;;;;;;4.87;1.80;;;;;;;;;;6243827;28;20029;-77
2023/08/12 14:47:35;;;;;;;4.68;2.53;;;;;;;;;;6242441;28;20435;-77
2023/08/12 14:50:37;;;;;;;2.70;1.83;;;;;;;;;;6241208;28;20049;-76
2023/08/12 14:53:37;;;;;;;3.65;2.55;;;;;;;;;;6242614;28;20084;-77
2023/08/12 14:56:37;;;;;;;3.63;2.20;;;;;;;;;;6240151;28;20028;-77
2023/08/12 14:59:37;;;;;;;3.20;2.20;;;;;;;;;;6245962;28;20037;-77
2023/08/12 15:02:37;;;;;;;2.25;1.98;;;;;;;;;;6243824;28;20455;-77
2023/08/12 15:05:38;;;;;;;5.40;2.30;;;;;;;;;;6246601;28;20017;-77
2023/08/12 15:08:38;;;;;;;2.25;2.03;;;;;;;;;;6242091;28;20029;-77
2023/08/12 15:11:38;;;;;;;5.47;2.30;;;;;;;;;;6242067;28;20049;-77
2023/08/12 15:14:38;;;;;;;4.43;2.60;;;;;;;;;;6242290;28;20026;-77
2023/08/12 15:17:39;;;;;;;5.07;1.80;;;;;;;;;;6241990;28;20036;-77
2023/08/12 15:20:39;;;;;;;4.40;2.23;;;;;;;;;;6223730;28;20084;-77
2023/08/12 15:23:40;;;;;;;3.95;2.20;;;;;;;;;;6242181;28;20067;-77
2023/08/12 15:26:40;;;;;;;6.53;2.30;;;;;;;;;;6241694;28;20022;-77
2023/08/12 15:29:40;;;;;;;3.45;2.53;;;;;;;;;;6242994;28;20484;-78
2023/08/12 15:32:41;;;;;;;3.07;2.07;;;;;;;;;;6242181;28;20017;-77
2023/08/12 15:35:42;;;;;;;3.85;2.28;;;;;;;;;;6223356;28;20033;-78
2023/08/12 15:38:42;;;;;;;2.75;2.15;;;;;;;;;;6207874;28;20121;-77
2023/08/12 15:41:43;;;;;;;1.60;1.50;;;;;;;;;;6222034;28;20464;-77
2023/08/12 15:44:43;;;;;;;3.10;2.30;;;;;;;;;;6244239;28;20179;-77
2023/08/12 15:47:43;;;;;;;4.60;2.45;;;;;;;;;;6241497;28;20073;-77
2023/08/12 15:50:44;;;;;;;2.80;2.00;;;;;;;;;;6223614;28;20152;-77
2023/08/12 15:53:44;;;;;;;4.35;2.97;;;;;;;;;;6242880;28;20026;-78
2023/08/12 15:56:46;;;;;;;2.53;1.90;;;;;;;;;;6246366;28;20499;-78
2023/08/12 15:59:48;;;;;;;4.68;1.83;;;;;;;;;;6246278;28;20033;-77
2023/08/12 16:02:48;;;;;;;3.60;1.50;;;;;;;;;;6251378;28;20018;-77
2023/08/12 16:05:51;;;;;;;3.38;1.98;;;;;;;;;;6246974;28;20399;-78
2023/08/12 16:08:51;;;;;;;2.83;2.10;;;;;;;;;;6228687;28;20017;-78
2023/08/12 16:11:52;;;;;;;2.97;2.00;;;;;;;;;;6246362;28;20091;-77
2023/08/12 16:14:52;;;;;;;3.27;1.80;;;;;;;;;;6246530;28;20033;-78
2023/08/12 16:17:54;;;;;;;3.70;2.20;;;;;;;;;;6240806;28;20539;-78
2023/08/12 16:20:54;;;;;;;7.18;2.03;;;;;;;;;;6245616;28;20017;-78
2023/08/12 16:23:54;;;;;;;3.13;1.60;;;;;;;;;;6228200;28;20029;-78
2023/08/12 16:26:54;;;;;;;3.58;1.92;;;;;;;;;;6245422;28;20026;-78
2023/08/12 16:29:54;;;;;;;4.10;2.00;;;;;;;;;;6247542;28;20088;-78
2023/08/12 16:32:55;;;;;;;3.00;2.20;;;;;;;;;;6227830;28;20020;-78
2023/08/12 16:35:55;;;;;;;5.22;2.80;;;;;;;;;;6245233;28;20018;-78
2023/08/12 16:38:55;;;;;;;4.70;2.67;;;;;;;;;;6245172;28;20530;-78
2023/08/12 16:41:55;;;;;;;12.70;6.37;;;;;;;;;;6245117;28;20022;-78
2023/08/12 16:44:55;;;;;;;12.32;9.02;;;;;;;;;;6249054;28;20099;-78
2023/08/12 16:47:55;;;;;;;11.83;8.63;;;;;;;;;;6245238;28;20571;-78
2023/08/12 16:50:56;;;;;;;8.30;5.13;;;;;;;;;;6244455;28;20392;-78
2023/08/12 16:53:56;;;;;;;11.93;7.47;;;;;;;;;;6226791;28;20113;-78
2023/08/12 16:56:57;;;;;;;7.33;4.47;;;;;;;;;;6245341;28;20103;-78
2023/08/12 16:59:57;;;;;;;9.02;4.20;;;;;;;;;;6226777;28;20298;-78
2023/08/12 17:02:57;;;;;;;7.70;3.40;;;;;;;;;;6245542;28;20010;-78
2023/08/12 17:05:57;;;;;;;8.33;3.50;;;;;;;;;;6246431;28;20006;-78
2023/08/12 17:08:58;;;;;;;3.40;2.50;;;;;;;;;;6243313;28;20753;-78
2023/08/12 17:12:00;;;;;;;4.82;3.08;;;;;;;;;;6226754;28;20021;-78
2023/08/12 17:15:00;;;;;;;8.43;3.17;;;;;;;;;;6244414;28;20100;-78
2023/08/12 17:18:01;;;;;;;4.37;3.10;;;;;;;;;;6245100;28;20017;-78
2023/08/12 17:21:02;;;;;;;5.53;3.45;;;;;;;;;;6243154;28;20009;-78
2023/08/12 17:24:03;;;;;;;5.80;3.57;;;;;;;;;;6247284;28;20483;-78
2023/08/12 17:27:03;;;;;;;5.00;3.30;;;;;;;;;;6244191;28;20013;-78
2023/08/12 17:30:04;;;;;;;7.35;3.55;;;;;;;;;;6245680;28;20052;-78
2023/08/12 17:33:05;;;;;;;3.83;3.00;;;;;;;;;;6244193;28;20635;-77
2023/08/12 17:36:05;;;;;;;4.73;2.97;;;;;;;;;;6226627;28;20014;-78
2023/08/12 17:39:05;;;;;;;6.07;3.30;;;;;;;;;;6245018;28;20025;-77
2023/08/12 17:42:06;;;;;;;5.80;3.85;;;;;;;;;;6244206;28;20017;-78
2023/08/12 17:45:06;;;;;;;7.70;3.53;;;;;;;;;;6247600;28;20111;-78
2023/08/12 17:48:07;;;;;;;6.70;2.80;;;;;;;;;;6242106;28;20057;-78
2023/08/12 17:51:14;;;;;;;6.05;2.78;;;;;;;;;;6243338;28;20024;-79
2023/08/12 17:54:15;;;;;;;5.95;3.00;;;;;;;;;;6223906;28;20064;-79
2023/08/12 17:57:15;;;;;;;;;;;;;;;;;;6243468;28;20017;-78
2023/08/12 18:00:15;;;;;;;4.25;2.95;;;;;;;;;;6242912;28;19916;-79
2023/08/12 18:03:16;;;;;;;7.13;2.90;;;;;;;;;;6242827;28;20029;-79